sensor_id;sensor_type;location;lat;lon;timestamp;temperature;humidity
10051;DHT22;5065;46.942;7.432;2022-10-18T00:01:32;16.40;99.90
10051;DHT22;5065;46.942;7.432;2022-10-18T00:03:59;16.30;99.90
10051;DHT22;5065;46.942;7.432;2022-10-18T00:06:26;16.30;99.90
10051;DHT22;5065;46.942;7.432;2022-10-18T00:08:54;16.30;99.90
10051;DHT22;5065;46.942;7.432;2022-10-18T00:11:21;16.30;99.90
10051;DHT22;5065;46.942;7.432;2022-10-18T00:13:48;16.30;99.90
10051;DHT22;5065;46.942;7.432;2022-10-18T00:16:17;16.30;99.90
10051;DHT22;5065;46.942;7.432;2022-10-18T00:18:46;16.30;99.90
10051;DHT22;5065;46.942;7.432;2022-10-18T00:21:15;16.30;99.90
10051;DHT22;5065;46.942;7.432;2022-10-18T00:23:43;16.20;99.90
10051;DHT22;5065;46.942;7.432;2022-10-18T00:26:12;16.20;99.90
10051;DHT22;5065;46.942;7.432;2022-10-18T00:28:40;16.20;99.90
10051;DHT22;5065;46.942;7.432;2022-10-18T00:31:12;16.30;99.90
10051;DHT22;5065;46.942;7.432;2022-10-18T00:33:40;16.30;99.90
10051;DHT22;5065;46.942;7.432;2022-10-18T00:36:09;16.30;99.90
10051;DHT22;5065;46.942;7.432;2022-10-18T00:38:37;16.20;99.90
10051;DHT22;5065;46.942;7.432;2022-10-18T00:41:06;16.20;99.90
10051;DHT22;5065;46.942;7.432;2022-10-18T00:43:50;16.20;99.90
10051;DHT22;5065;46.942;7.432;2022-10-18T00:46:17;16.30;99.90
10051;DHT22;5065;46.942;7.432;2022-10-18T00:48:45;16.30;99.90
10051;DHT22;5065;46.942;7.432;2022-10-18T00:51:14;16.30;99.90
10051;DHT22;5065;46.942;7.432;2022-10-18T00:53:42;16.30;99.90
10051;DHT22;5065;46.942;7.432;2022-10-18T00:56:10;16.30;99.90
10051;DHT22;5065;46.942;7.432;2022-10-18T00:58:38;16.20;99.90
10051;DHT22;5065;46.942;7.432;2022-10-18T01:01:05;16.20;99.90
10051;DHT22;5065;46.942;7.432;2022-10-18T01:03:32;16.20;99.90
10051;DHT22;5065;46.942;7.432;2022-10-18T01:06:01;16.20;99.90
10051;DHT22;5065;46.942;7.432;2022-10-18T01:11:43;16.20;99.90
10051;DHT22;5065;46.942;7.432;2022-10-18T01:14:20;16.10;99.90
10051;DHT22;5065;46.942;7.432;2022-10-18T01:16:52;16.10;99.90
10051;DHT22;5065;46.942;7.432;2022-10-18T01:19:54;16.10;99.90
10051;DHT22;5065;46.942;7.432;2022-10-18T01:22:28;16.10;99.90
10051;DHT22;5065;46.942;7.432;2022-10-18T01:25:19;16.10;99.90
10051;DHT22;5065;46.942;7.432;2022-10-18T01:27:56;16.10;99.90
10051;DHT22;5065;46.942;7.432;2022-10-18T01:30:44;16.10;99.90
10051;DHT22;5065;46.942;7.432;2022-10-18T01:33:26;16.10;99.90
10051;DHT22;5065;46.942;7.432;2022-10-18T01:35:59;16.10;99.90
10051;DHT22;5065;46.942;7.432;2022-10-18T01:38:30;16.10;99.90
10051;DHT22;5065;46.942;7.432;2022-10-18T01:40:59;16.10;99.90
10051;DHT22;5065;46.942;7.432;2022-10-18T01:43:29;16.10;99.90
10051;DHT22;5065;46.942;7.432;2022-10-18T01:45:59;16.10;99.90
10051;DHT22;5065;46.942;7.432;2022-10-18T01:48:27;16.10;99.90
10051;DHT22;5065;46.942;7.432;2022-10-18T01:50:56;16.10;99.90
10051;DHT22;5065;46.942;7.432;2022-10-18T01:53:26;16.10;99.90
10051;DHT22;5065;46.942;7.432;2022-10-18T01:56:10;16.10;99.90
10051;DHT22;5065;46.942;7.432;2022-10-18T01:58:47;16.10;99.90
10051;DHT22;5065;46.942;7.432;2022-10-18T02:01:22;16.10;99.90
10051;DHT22;5065;46.942;7.432;2022-10-18T02:03:56;16.10;99.90
10051;DHT22;5065;46.942;7.432;2022-10-18T02:06:30;16.10;99.90
10051;DHT22;5065;46.942;7.432;2022-10-18T02:09:01;16.10;99.90
10051;DHT22;5065;46.942;7.432;2022-10-18T02:11:31;16.10;99.90
10051;DHT22;5065;46.942;7.432;2022-10-18T02:14:04;16.00;99.90
10051;DHT22;5065;46.942;7.432;2022-10-18T02:16:37;16.00;99.90
10051;DHT22;5065;46.942;7.432;2022-10-18T02:19:11;16.00;99.90
10051;DHT22;5065;46.942;7.432;2022-10-18T02:21:40;16.00;99.90
10051;DHT22;5065;46.942;7.432;2022-10-18T02:24:09;16.00;99.90
10051;DHT22;5065;46.942;7.432;2022-10-18T02:26:38;16.00;99.90
10051;DHT22;5065;46.942;7.432;2022-10-18T02:29:06;15.90;99.90
10051;DHT22;5065;46.942;7.432;2022-10-18T02:31:40;16.00;99.90
10051;DHT22;5065;46.942;7.432;2022-10-18T02:34:17;16.00;99.90
10051;DHT22;5065;46.942;7.432;2022-10-18T02:36:46;16.00;99.90
10051;DHT22;5065;46.942;7.432;2022-10-18T02:39:17;15.90;99.90
10051;DHT22;5065;46.942;7.432;2022-10-18T02:41:44;16.00;99.90
10051;DHT22;5065;46.942;7.432;2022-10-18T02:44:12;15.90;99.90
10051;DHT22;5065;46.942;7.432;2022-10-18T02:46:41;15.90;99.90
10051;DHT22;5065;46.942;7.432;2022-10-18T02:49:08;15.90;99.90
10051;DHT22;5065;46.942;7.432;2022-10-18T02:51:35;15.90;99.90
10051;DHT22;5065;46.942;7.432;2022-10-18T02:54:02;15.90;99.90
10051;DHT22;5065;46.942;7.432;2022-10-18T02:56:30;15.90;99.90
10051;DHT22;5065;46.942;7.432;2022-10-18T02:58:57;15.80;99.90
10051;DHT22;5065;46.942;7.432;2022-10-18T03:01:24;15.80;99.90
10051;DHT22;5065;46.942;7.432;2022-10-18T03:03:53;15.90;99.90
10051;DHT22;5065;46.942;7.432;2022-10-18T03:06:20;15.80;99.90
10051;DHT22;5065;46.942;7.432;2022-10-18T03:08:47;15.80;99.90
10051;DHT22;5065;46.942;7.432;2022-10-18T03:11:14;15.80;99.90
10051;DHT22;5065;46.942;7.432;2022-10-18T03:13:41;15.70;99.90
10051;DHT22;5065;46.942;7.432;2022-10-18T03:16:08;15.70;99.90
10051;DHT22;5065;46.942;7.432;2022-10-18T03:18:36;15.70;99.90
10051;DHT22;5065;46.942;7.432;2022-10-18T03:21:05;15.60;99.90
10051;DHT22;5065;46.942;7.432;2022-10-18T03:23:33;15.50;99.90
10051;DHT22;5065;46.942;7.432;2022-10-18T03:26:01;15.50;99.90
10051;DHT22;5065;46.942;7.432;2022-10-18T03:28:28;15.60;99.90
10051;DHT22;5065;46.942;7.432;2022-10-18T03:30:59;15.60;99.90
10051;DHT22;5065;46.942;7.432;2022-10-18T03:33:26;15.60;99.90
10051;DHT22;5065;46.942;7.432;2022-10-18T03:35:53;15.50;99.90
10051;DHT22;5065;46.942;7.432;2022-10-18T03:38:23;15.50;99.90
10051;DHT22;5065;46.942;7.432;2022-10-18T03:40:50;15.50;99.90
10051;DHT22;5065;46.942;7.432;2022-10-18T03:43:17;15.40;99.90
10051;DHT22;5065;46.942;7.432;2022-10-18T03:45:44;15.50;99.90
10051;DHT22;5065;46.942;7.432;2022-10-18T03:48:12;15.50;99.90
10051;DHT22;5065;46.942;7.432;2022-10-18T03:50:39;15.40;99.90
10051;DHT22;5065;46.942;7.432;2022-10-18T03:53:06;15.40;99.90
10051;DHT22;5065;46.942;7.432;2022-10-18T03:55:36;15.40;99.90
10051;DHT22;5065;46.942;7.432;2022-10-18T03:58:03;15.40;99.90
10051;DHT22;5065;46.942;7.432;2022-10-18T04:00:30;15.50;99.90
10051;DHT22;5065;46.942;7.432;2022-10-18T04:02:58;15.50;99.90
10051;DHT22;5065;46.942;7.432;2022-10-18T04:05:25;15.50;99.90
10051;DHT22;5065;46.942;7.432;2022-10-18T04:07:53;15.40;99.90
10051;DHT22;5065;46.942;7.432;2022-10-18T04:10:20;15.50;99.90
10051;DHT22;5065;46.942;7.432;2022-10-18T04:12:49;15.50;99.90
10051;DHT22;5065;46.942;7.432;2022-10-18T04:15:16;15.50;99.90
10051;DHT22;5065;46.942;7.432;2022-10-18T04:17:43;15.50;99.90
10051;DHT22;5065;46.942;7.432;2022-10-18T04:20:11;15.40;99.90
10051;DHT22;5065;46.942;7.432;2022-10-18T04:22:38;15.40;99.90
10051;DHT22;5065;46.942;7.432;2022-10-18T04:25:06;15.40;99.90
10051;DHT22;5065;46.942;7.432;2022-10-18T04:27:33;15.40;99.90
10051;DHT22;5065;46.942;7.432;2022-10-18T04:30:02;15.30;99.90
10051;DHT22;5065;46.942;7.432;2022-10-18T04:32:29;15.30;99.90
10051;DHT22;5065;46.942;7.432;2022-10-18T04:34:56;15.30;99.90
10051;DHT22;5065;46.942;7.432;2022-10-18T04:37:23;15.30;99.90
10051;DHT22;5065;46.942;7.432;2022-10-18T04:39:51;15.30;99.90
10051;DHT22;5065;46.942;7.432;2022-10-18T04:42:18;15.30;99.90
10051;DHT22;5065;46.942;7.432;2022-10-18T04:44:45;15.20;99.90
10051;DHT22;5065;46.942;7.432;2022-10-18T04:47:14;15.20;99.90
10051;DHT22;5065;46.942;7.432;2022-10-18T04:49:41;15.20;99.90
10051;DHT22;5065;46.942;7.432;2022-10-18T04:52:09;15.20;99.90
10051;DHT22;5065;46.942;7.432;2022-10-18T04:54:36;15.20;99.90
10051;DHT22;5065;46.942;7.432;2022-10-18T04:57:03;15.20;99.90
10051;DHT22;5065;46.942;7.432;2022-10-18T04:59:30;15.10;99.90
10051;DHT22;5065;46.942;7.432;2022-10-18T05:01:58;15.20;99.90
10051;DHT22;5065;46.942;7.432;2022-10-18T05:04:26;15.20;99.90
10051;DHT22;5065;46.942;7.432;2022-10-18T05:06:53;15.10;99.90
10051;DHT22;5065;46.942;7.432;2022-10-18T05:09:21;15.10;99.90
10051;DHT22;5065;46.942;7.432;2022-10-18T05:11:49;15.00;99.90
10051;DHT22;5065;46.942;7.432;2022-10-18T05:14:17;14.90;99.90
10051;DHT22;5065;46.942;7.432;2022-10-18T05:16:44;14.90;99.90
10051;DHT22;5065;46.942;7.432;2022-10-18T05:19:11;14.90;99.90
10051;DHT22;5065;46.942;7.432;2022-10-18T05:21:39;14.90;99.90
10051;DHT22;5065;46.942;7.432;2022-10-18T05:24:08;14.90;99.90
10051;DHT22;5065;46.942;7.432;2022-10-18T05:26:37;14.90;99.90
10051;DHT22;5065;46.942;7.432;2022-10-18T05:29:05;14.90;99.90
10051;DHT22;5065;46.942;7.432;2022-10-18T05:31:32;14.90;99.90
10051;DHT22;5065;46.942;7.432;2022-10-18T05:33:59;14.90;99.90
10051;DHT22;5065;46.942;7.432;2022-10-18T05:36:27;14.80;99.90
10051;DHT22;5065;46.942;7.432;2022-10-18T05:38:55;14.70;99.90
10051;DHT22;5065;46.942;7.432;2022-10-18T05:41:23;14.70;99.90
10051;DHT22;5065;46.942;7.432;2022-10-18T05:43:50;14.70;99.90
10051;DHT22;5065;46.942;7.432;2022-10-18T05:46:17;14.70;99.90
10051;DHT22;5065;46.942;7.432;2022-10-18T05:48:48;14.60;99.90
10051;DHT22;5065;46.942;7.432;2022-10-18T05:51:16;14.70;99.90
10051;DHT22;5065;46.942;7.432;2022-10-18T05:53:44;14.70;99.90
10051;DHT22;5065;46.942;7.432;2022-10-18T05:56:12;14.70;99.90
10051;DHT22;5065;46.942;7.432;2022-10-18T05:58:40;14.70;99.90
10051;DHT22;5065;46.942;7.432;2022-10-18T06:01:08;14.70;99.90
10051;DHT22;5065;46.942;7.432;2022-10-18T06:03:36;14.70;99.90
10051;DHT22;5065;46.942;7.432;2022-10-18T06:06:05;14.70;99.90
10051;DHT22;5065;46.942;7.432;2022-10-18T06:08:33;14.70;99.90
10051;DHT22;5065;46.942;7.432;2022-10-18T06:11:05;14.70;99.90
10051;DHT22;5065;46.942;7.432;2022-10-18T06:13:37;14.70;99.90
10051;DHT22;5065;46.942;7.432;2022-10-18T06:16:05;14.70;99.90
10051;DHT22;5065;46.942;7.432;2022-10-18T06:18:32;14.70;99.90
10051;DHT22;5065;46.942;7.432;2022-10-18T06:21:00;14.80;99.90
10051;DHT22;5065;46.942;7.432;2022-10-18T06:23:27;14.80;99.90
10051;DHT22;5065;46.942;7.432;2022-10-18T06:25:58;14.90;99.90
10051;DHT22;5065;46.942;7.432;2022-10-18T06:28:26;15.00;99.90
10051;DHT22;5065;46.942;7.432;2022-10-18T06:30:54;15.10;99.90
10051;DHT22;5065;46.942;7.432;2022-10-18T06:33:22;15.20;99.90
10051;DHT22;5065;46.942;7.432;2022-10-18T06:35:56;15.30;99.90
10051;DHT22;5065;46.942;7.432;2022-10-18T06:38:24;15.50;99.90
10051;DHT22;5065;46.942;7.432;2022-10-18T06:40:52;15.60;99.90
10051;DHT22;5065;46.942;7.432;2022-10-18T06:43:20;15.70;99.90
10051;DHT22;5065;46.942;7.432;2022-10-18T06:45:47;15.90;99.90
10051;DHT22;5065;46.942;7.432;2022-10-18T06:48:16;15.90;99.90
10051;DHT22;5065;46.942;7.432;2022-10-18T06:50:50;16.00;99.90
10051;DHT22;5065;46.942;7.432;2022-10-18T06:53:17;16.00;99.90
10051;DHT22;5065;46.942;7.432;2022-10-18T06:55:44;16.00;99.90
10051;DHT22;5065;46.942;7.432;2022-10-18T06:58:12;16.00;99.90
10051;DHT22;5065;46.942;7.432;2022-10-18T07:00:39;16.00;99.90
10051;DHT22;5065;46.942;7.432;2022-10-18T07:03:07;16.00;99.90
10051;DHT22;5065;46.942;7.432;2022-10-18T07:05:35;16.20;99.90
10051;DHT22;5065;46.942;7.432;2022-10-18T07:08:03;16.40;99.90
10051;DHT22;5065;46.942;7.432;2022-10-18T07:10:30;16.70;99.90
10051;DHT22;5065;46.942;7.432;2022-10-18T07:12:57;16.90;99.90
10051;DHT22;5065;46.942;7.432;2022-10-18T07:15:24;17.00;99.90
10051;DHT22;5065;46.942;7.432;2022-10-18T07:17:51;17.10;99.90
10051;DHT22;5065;46.942;7.432;2022-10-18T07:20:19;17.10;99.90
10051;DHT22;5065;46.942;7.432;2022-10-18T07:22:47;17.00;99.90
10051;DHT22;5065;46.942;7.432;2022-10-18T07:25:14;17.00;99.90
10051;DHT22;5065;46.942;7.432;2022-10-18T07:27:42;16.90;99.90
10051;DHT22;5065;46.942;7.432;2022-10-18T07:30:10;16.70;99.90
10051;DHT22;5065;46.942;7.432;2022-10-18T07:32:37;16.60;99.90
10051;DHT22;5065;46.942;7.432;2022-10-18T07:35:05;16.60;99.90
10051;DHT22;5065;46.942;7.432;2022-10-18T07:37:33;16.50;99.90
10051;DHT22;5065;46.942;7.432;2022-10-18T07:40:01;16.50;99.90
10051;DHT22;5065;46.942;7.432;2022-10-18T07:42:28;16.50;99.90
10051;DHT22;5065;46.942;7.432;2022-10-18T07:44:55;16.50;99.90
10051;DHT22;5065;46.942;7.432;2022-10-18T07:47:23;16.50;99.90
10051;DHT22;5065;46.942;7.432;2022-10-18T07:49:50;16.60;99.90
10051;DHT22;5065;46.942;7.432;2022-10-18T07:52:17;16.60;99.90
10051;DHT22;5065;46.942;7.432;2022-10-18T07:54:44;16.70;99.90
10051;DHT22;5065;46.942;7.432;2022-10-18T07:57:13;16.80;99.90
10051;DHT22;5065;46.942;7.432;2022-10-18T07:59:40;16.90;99.90
10051;DHT22;5065;46.942;7.432;2022-10-18T08:02:10;17.00;99.90
10051;DHT22;5065;46.942;7.432;2022-10-18T08:04:38;17.00;99.90
10051;DHT22;5065;46.942;7.432;2022-10-18T08:07:05;17.10;99.90
10051;DHT22;5065;46.942;7.432;2022-10-18T08:09:32;17.20;99.90
10051;DHT22;5065;46.942;7.432;2022-10-18T08:11:59;17.20;99.90
10051;DHT22;5065;46.942;7.432;2022-10-18T08:14:28;17.30;99.90
10051;DHT22;5065;46.942;7.432;2022-10-18T08:16:55;17.40;99.90
10051;DHT22;5065;46.942;7.432;2022-10-18T08:19:22;17.50;99.90
10051;DHT22;5065;46.942;7.432;2022-10-18T08:21:52;17.50;99.90
10051;DHT22;5065;46.942;7.432;2022-10-18T08:24:20;17.50;99.90
10051;DHT22;5065;46.942;7.432;2022-10-18T08:26:48;17.60;99.90
10051;DHT22;5065;46.942;7.432;2022-10-18T08:29:15;17.60;99.90
10051;DHT22;5065;46.942;7.432;2022-10-18T08:31:44;17.70;99.90
10051;DHT22;5065;46.942;7.432;2022-10-18T08:34:11;17.70;99.90
10051;DHT22;5065;46.942;7.432;2022-10-18T08:36:38;17.80;99.90
10051;DHT22;5065;46.942;7.432;2022-10-18T08:39:06;17.80;99.90
10051;DHT22;5065;46.942;7.432;2022-10-18T08:42:05;17.90;99.90
10051;DHT22;5065;46.942;7.432;2022-10-18T08:44:41;17.90;99.90
10051;DHT22;5065;46.942;7.432;2022-10-18T08:47:14;18.00;99.90
10051;DHT22;5065;46.942;7.432;2022-10-18T08:49:44;18.00;99.90
10051;DHT22;5065;46.942;7.432;2022-10-18T08:52:21;18.00;99.90
10051;DHT22;5065;46.942;7.432;2022-10-18T08:54:57;18.00;99.90
10051;DHT22;5065;46.942;7.432;2022-10-18T08:57:27;18.00;99.90
10051;DHT22;5065;46.942;7.432;2022-10-18T08:59:54;18.00;99.90
10051;DHT22;5065;46.942;7.432;2022-10-18T09:02:38;18.10;99.90
10051;DHT22;5065;46.942;7.432;2022-10-18T09:05:20;18.20;99.90
10051;DHT22;5065;46.942;7.432;2022-10-18T09:08:02;18.40;99.90
10051;DHT22;5065;46.942;7.432;2022-10-18T09:10:42;18.50;99.90
10051;DHT22;5065;46.942;7.432;2022-10-18T09:16:00;18.70;99.90
10051;DHT22;5065;46.942;7.432;2022-10-18T09:18:50;18.80;99.90
10051;DHT22;5065;46.942;7.432;2022-10-18T09:21:21;18.80;99.90
10051;DHT22;5065;46.942;7.432;2022-10-18T09:23:55;18.90;99.90
10051;DHT22;5065;46.942;7.432;2022-10-18T09:26:27;19.00;99.90
10051;DHT22;5065;46.942;7.432;2022-10-18T09:29:04;19.10;99.90
10051;DHT22;5065;46.942;7.432;2022-10-18T09:31:43;19.20;99.90
10051;DHT22;5065;46.942;7.432;2022-10-18T09:34:19;19.30;99.90
10051;DHT22;5065;46.942;7.432;2022-10-18T09:36:50;19.40;99.90
10051;DHT22;5065;46.942;7.432;2022-10-18T09:39:21;19.50;99.90
10051;DHT22;5065;46.942;7.432;2022-10-18T09:41:53;19.50;99.90
10051;DHT22;5065;46.942;7.432;2022-10-18T09:44:24;19.60;99.90
10051;DHT22;5065;46.942;7.432;2022-10-18T09:46:56;19.70;99.90
10051;DHT22;5065;46.942;7.432;2022-10-18T09:49:28;19.70;99.90
10051;DHT22;5065;46.942;7.432;2022-10-18T09:51:59;19.80;99.90
10051;DHT22;5065;46.942;7.432;2022-10-18T09:54:30;19.90;99.90
10051;DHT22;5065;46.942;7.432;2022-10-18T09:57:02;19.90;99.90
10051;DHT22;5065;46.942;7.432;2022-10-18T09:59:34;20.00;99.90
10051;DHT22;5065;46.942;7.432;2022-10-18T10:02:02;20.10;99.90
10051;DHT22;5065;46.942;7.432;2022-10-18T10:04:31;20.20;99.90
10051;DHT22;5065;46.942;7.432;2022-10-18T10:07:00;20.30;99.90
10051;DHT22;5065;46.942;7.432;2022-10-18T10:09:29;20.30;99.90
10051;DHT22;5065;46.942;7.432;2022-10-18T10:11:57;20.40;99.90
10051;DHT22;5065;46.942;7.432;2022-10-18T10:14:26;20.50;99.90
10051;DHT22;5065;46.942;7.432;2022-10-18T10:16:56;20.60;99.90
10051;DHT22;5065;46.942;7.432;2022-10-18T10:19:27;20.80;99.90
10051;DHT22;5065;46.942;7.432;2022-10-18T10:22:02;20.80;99.90
10051;DHT22;5065;46.942;7.432;2022-10-18T10:24:40;20.90;99.90
10051;DHT22;5065;46.942;7.432;2022-10-18T10:27:18;21.00;99.90
10051;DHT22;5065;46.942;7.432;2022-10-18T10:29:49;21.10;99.90
10051;DHT22;5065;46.942;7.432;2022-10-18T10:32:20;21.20;99.90
10051;DHT22;5065;46.942;7.432;2022-10-18T10:34:48;21.20;99.90
10051;DHT22;5065;46.942;7.432;2022-10-18T10:37:33;21.20;99.90
10051;DHT22;5065;46.942;7.432;2022-10-18T10:40:12;21.20;99.90
10051;DHT22;5065;46.942;7.432;2022-10-18T10:42:57;21.20;99.90
10051;DHT22;5065;46.942;7.432;2022-10-18T10:45:27;21.20;99.90
10051;DHT22;5065;46.942;7.432;2022-10-18T10:48:03;21.30;99.90
10051;DHT22;5065;46.942;7.432;2022-10-18T10:50:30;21.30;99.90
10051;DHT22;5065;46.942;7.432;2022-10-18T10:53:00;21.30;99.90
10051;DHT22;5065;46.942;7.432;2022-10-18T10:55:31;21.40;99.90
10051;DHT22;5065;46.942;7.432;2022-10-18T10:57:59;21.40;99.90
10051;DHT22;5065;46.942;7.432;2022-10-18T11:00:38;21.50;99.90
10051;DHT22;5065;46.942;7.432;2022-10-18T11:03:11;21.50;99.90
10051;DHT22;5065;46.942;7.432;2022-10-18T11:05:44;21.50;99.90
10051;DHT22;5065;46.942;7.432;2022-10-18T11:08:15;21.60;99.90
10051;DHT22;5065;46.942;7.432;2022-10-18T11:10:55;21.60;99.90
10051;DHT22;5065;46.942;7.432;2022-10-18T11:13:34;21.60;99.90
10051;DHT22;5065;46.942;7.432;2022-10-18T11:16:12;21.60;99.90
10051;DHT22;5065;46.942;7.432;2022-10-18T11:18:42;21.60;99.90
10051;DHT22;5065;46.942;7.432;2022-10-18T11:21:15;21.70;99.90
10051;DHT22;5065;46.942;7.432;2022-10-18T11:23:44;21.70;99.90
10051;DHT22;5065;46.942;7.432;2022-10-18T11:26:33;21.70;99.90
10051;DHT22;5065;46.942;7.432;2022-10-18T11:29:25;21.80;99.90
10051;DHT22;5065;46.942;7.432;2022-10-18T11:32:04;21.80;99.90
10051;DHT22;5065;46.942;7.432;2022-10-18T11:34:49;21.90;99.90
10051;DHT22;5065;46.942;7.432;2022-10-18T11:37:31;21.90;99.90
10051;DHT22;5065;46.942;7.432;2022-10-18T11:40:14;21.90;99.90
10051;DHT22;5065;46.942;7.432;2022-10-18T11:42:48;22.00;99.90
10051;DHT22;5065;46.942;7.432;2022-10-18T11:45:29;22.10;99.90
10051;DHT22;5065;46.942;7.432;2022-10-18T11:48:04;22.10;99.90
10051;DHT22;5065;46.942;7.432;2022-10-18T11:50:46;22.10;99.90
10051;DHT22;5065;46.942;7.432;2022-10-18T11:53:24;22.10;99.90
10051;DHT22;5065;46.942;7.432;2022-10-18T11:56:01;22.20;99.90
10051;DHT22;5065;46.942;7.432;2022-10-18T11:58:42;22.20;99.90
10051;DHT22;5065;46.942;7.432;2022-10-18T12:01:18;22.20;99.90
10051;DHT22;5065;46.942;7.432;2022-10-18T12:03:54;22.20;99.90
10051;DHT22;5065;46.942;7.432;2022-10-18T12:06:25;22.30;99.90
10051;DHT22;5065;46.942;7.432;2022-10-18T12:08:56;22.30;99.90
10051;DHT22;5065;46.942;7.432;2022-10-18T12:11:27;22.20;99.90
10051;DHT22;5065;46.942;7.432;2022-10-18T12:13:55;22.20;99.90
10051;DHT22;5065;46.942;7.432;2022-10-18T12:16:23;22.20;99.90
10051;DHT22;5065;46.942;7.432;2022-10-18T12:18:52;22.20;99.90
10051;DHT22;5065;46.942;7.432;2022-10-18T12:21:20;22.20;99.90
10051;DHT22;5065;46.942;7.432;2022-10-18T12:23:48;22.10;99.90
10051;DHT22;5065;46.942;7.432;2022-10-18T12:26:17;22.10;99.90
10051;DHT22;5065;46.942;7.432;2022-10-18T12:28:48;22.10;99.90
10051;DHT22;5065;46.942;7.432;2022-10-18T12:31:19;22.00;99.90
10051;DHT22;5065;46.942;7.432;2022-10-18T12:33:47;22.00;99.90
10051;DHT22;5065;46.942;7.432;2022-10-18T12:36:20;22.00;99.90
10051;DHT22;5065;46.942;7.432;2022-10-18T12:38:53;22.00;99.90
10051;DHT22;5065;46.942;7.432;2022-10-18T12:41:22;22.00;99.90
10051;DHT22;5065;46.942;7.432;2022-10-18T12:43:52;21.90;99.90
10051;DHT22;5065;46.942;7.432;2022-10-18T12:46:19;21.90;99.90
10051;DHT22;5065;46.942;7.432;2022-10-18T12:48:48;21.90;99.90
10051;DHT22;5065;46.942;7.432;2022-10-18T12:51:16;21.90;99.90
10051;DHT22;5065;46.942;7.432;2022-10-18T12:53:44;21.80;99.90
10051;DHT22;5065;46.942;7.432;2022-10-18T13:04:34;21.80;99.90
10051;DHT22;5065;46.942;7.432;2022-10-18T13:07:16;21.90;99.90
10051;DHT22;5065;46.942;7.432;2022-10-18T13:12:50;21.90;99.90
10051;DHT22;5065;46.942;7.432;2022-10-18T13:18:08;21.90;99.90
10051;DHT22;5065;46.942;7.432;2022-10-18T13:20:42;21.80;99.90
10051;DHT22;5065;46.942;7.432;2022-10-18T13:23:21;21.80;99.90
10051;DHT22;5065;46.942;7.432;2022-10-18T13:25:53;21.90;99.90
10051;DHT22;5065;46.942;7.432;2022-10-18T13:28:27;21.90;99.90
10051;DHT22;5065;46.942;7.432;2022-10-18T13:30:56;21.90;99.90
10051;DHT22;5065;46.942;7.432;2022-10-18T13:33:28;21.90;99.90
10051;DHT22;5065;46.942;7.432;2022-10-18T13:35:57;21.90;99.90
10051;DHT22;5065;46.942;7.432;2022-10-18T13:38:30;21.90;99.90
10051;DHT22;5065;46.942;7.432;2022-10-18T13:40:59;21.90;99.90
10051;DHT22;5065;46.942;7.432;2022-10-18T13:46:11;21.80;99.90
10051;DHT22;5065;46.942;7.432;2022-10-18T13:48:45;21.90;99.90
10051;DHT22;5065;46.942;7.432;2022-10-18T13:51:21;21.80;99.90
10051;DHT22;5065;46.942;7.432;2022-10-18T13:53:53;21.90;99.90
10051;DHT22;5065;46.942;7.432;2022-10-18T13:56:35;21.90;99.90
10051;DHT22;5065;46.942;7.432;2022-10-18T13:59:20;21.90;99.90
10051;DHT22;5065;46.942;7.432;2022-10-18T14:01:55;21.90;99.90
10051;DHT22;5065;46.942;7.432;2022-10-18T14:07:23;22.00;99.90
10051;DHT22;5065;46.942;7.432;2022-10-18T14:09:52;22.00;99.90
10051;DHT22;5065;46.942;7.432;2022-10-18T14:12:21;22.00;99.90
10051;DHT22;5065;46.942;7.432;2022-10-18T14:14:53;22.00;99.90
10051;DHT22;5065;46.942;7.432;2022-10-18T14:17:23;22.10;99.90
10051;DHT22;5065;46.942;7.432;2022-10-18T14:19:53;22.00;99.90
10051;DHT22;5065;46.942;7.432;2022-10-18T14:22:24;22.00;99.90
10051;DHT22;5065;46.942;7.432;2022-10-18T14:24:52;22.00;99.90
10051;DHT22;5065;46.942;7.432;2022-10-18T14:27:20;22.00;99.90
10051;DHT22;5065;46.942;7.432;2022-10-18T14:29:48;22.10;99.90
10051;DHT22;5065;46.942;7.432;2022-10-18T14:32:23;22.00;99.90
10051;DHT22;5065;46.942;7.432;2022-10-18T14:34:50;22.00;99.90
10051;DHT22;5065;46.942;7.432;2022-10-18T14:37:19;22.00;99.90
10051;DHT22;5065;46.942;7.432;2022-10-18T14:39:48;21.90;99.90
10051;DHT22;5065;46.942;7.432;2022-10-18T14:42:18;21.90;99.90
10051;DHT22;5065;46.942;7.432;2022-10-18T14:44:46;21.90;99.90
10051;DHT22;5065;46.942;7.432;2022-10-18T14:47:13;21.90;99.90
10051;DHT22;5065;46.942;7.432;2022-10-18T14:49:41;21.90;99.90
10051;DHT22;5065;46.942;7.432;2022-10-18T14:52:12;21.80;99.90
10051;DHT22;5065;46.942;7.432;2022-10-18T14:54:40;21.80;99.90
10051;DHT22;5065;46.942;7.432;2022-10-18T14:57:17;21.80;99.90
10051;DHT22;5065;46.942;7.432;2022-10-18T14:59:47;21.70;99.90
10051;DHT22;5065;46.942;7.432;2022-10-18T15:02:20;21.80;99.90
10051;DHT22;5065;46.942;7.432;2022-10-18T15:04:55;21.80;99.90
10051;DHT22;5065;46.942;7.432;2022-10-18T15:07:23;21.70;99.90
10051;DHT22;5065;46.942;7.432;2022-10-18T15:09:55;21.70;99.90
10051;DHT22;5065;46.942;7.432;2022-10-18T15:12:25;21.70;99.90
10051;DHT22;5065;46.942;7.432;2022-10-18T15:14:54;21.70;99.90
10051;DHT22;5065;46.942;7.432;2022-10-18T15:17:24;21.60;99.90
10051;DHT22;5065;46.942;7.432;2022-10-18T15:19:55;21.60;99.90
10051;DHT22;5065;46.942;7.432;2022-10-18T15:22:24;21.60;99.90
10051;DHT22;5065;46.942;7.432;2022-10-18T15:25:14;21.60;99.90
10051;DHT22;5065;46.942;7.432;2022-10-18T15:27:44;21.60;99.90
10051;DHT22;5065;46.942;7.432;2022-10-18T15:30:17;21.60;99.90
10051;DHT22;5065;46.942;7.432;2022-10-18T15:32:53;21.50;99.90
10051;DHT22;5065;46.942;7.432;2022-10-18T15:35:24;21.50;99.90
10051;DHT22;5065;46.942;7.432;2022-10-18T15:37:53;21.50;99.90
10051;DHT22;5065;46.942;7.432;2022-10-18T15:40:44;21.50;99.90
10051;DHT22;5065;46.942;7.432;2022-10-18T15:43:34;21.50;99.90
10051;DHT22;5065;46.942;7.432;2022-10-18T15:46:04;21.50;99.90
10051;DHT22;5065;46.942;7.432;2022-10-18T15:48:35;21.50;99.90
10051;DHT22;5065;46.942;7.432;2022-10-18T15:51:04;21.40;99.90
10051;DHT22;5065;46.942;7.432;2022-10-18T15:53:34;21.40;99.90
10051;DHT22;5065;46.942;7.432;2022-10-18T15:56:04;21.40;99.90
10051;DHT22;5065;46.942;7.432;2022-10-18T15:58:43;21.30;99.90
10051;DHT22;5065;46.942;7.432;2022-10-18T16:01:15;21.40;99.90
10051;DHT22;5065;46.942;7.432;2022-10-18T16:03:43;21.30;99.90
10051;DHT22;5065;46.942;7.432;2022-10-18T16:06:12;21.20;99.90
10051;DHT22;5065;46.942;7.432;2022-10-18T16:08:41;21.20;99.90
10051;DHT22;5065;46.942;7.432;2022-10-18T16:11:13;21.20;99.90
10051;DHT22;5065;46.942;7.432;2022-10-18T16:13:42;21.20;99.90
10051;DHT22;5065;46.942;7.432;2022-10-18T16:16:13;21.20;99.90
10051;DHT22;5065;46.942;7.432;2022-10-18T16:18:40;21.10;99.90
10051;DHT22;5065;46.942;7.432;2022-10-18T16:21:15;21.10;99.90
10051;DHT22;5065;46.942;7.432;2022-10-18T16:23:42;21.00;99.90
10051;DHT22;5065;46.942;7.432;2022-10-18T16:26:10;21.00;99.90
10051;DHT22;5065;46.942;7.432;2022-10-18T16:28:37;21.00;99.90
10051;DHT22;5065;46.942;7.432;2022-10-18T16:31:08;21.00;99.90
10051;DHT22;5065;46.942;7.432;2022-10-18T16:33:36;20.90;99.90